sensor_id;sensor_type;location;lat;lon;timestamp;temperature;humidity
64670;DHT22;51080;51.690;5.174;2023-03-01T00:01:14;0.10;56.60
64670;DHT22;51080;51.690;5.174;2023-03-01T00:06:59;0.10;56.70
64670;DHT22;51080;51.690;5.174;2023-03-01T00:12:44;0.00;56.80
64670;DHT22;51080;51.690;5.174;2023-03-01T00:18:30;0.00;56.90
64670;DHT22;51080;51.690;5.174;2023-03-01T00:24:15;0.00;57.00
64670;DHT22;51080;51.690;5.174;2023-03-01T00:30:01;-0.10;57.20
64670;DHT22;51080;51.690;5.174;2023-03-01T00:35:45;-0.20;57.30
64670;DHT22;51080;51.690;5.174;2023-03-01T00:41:29;-0.20;57.40
64670;DHT22;51080;51.690;5.174;2023-03-01T00:47:15;-0.20;57.40
64670;DHT22;51080;51.690;5.174;2023-03-01T00:52:59;-0.20;57.40
64670;DHT22;51080;51.690;5.174;2023-03-01T00:58:44;-0.30;57.50
64670;DHT22;51080;51.690;5.174;2023-03-01T01:04:29;-0.30;57.50
64670;DHT22;51080;51.690;5.174;2023-03-01T01:10:14;-0.30;57.50
64670;DHT22;51080;51.690;5.174;2023-03-01T01:16:01;-0.40;57.60
64670;DHT22;51080;51.690;5.174;2023-03-01T01:21:45;-0.40;57.80
64670;DHT22;51080;51.690;5.174;2023-03-01T01:27:30;-0.40;57.90
64670;DHT22;51080;51.690;5.174;2023-03-01T01:33:14;-0.50;57.90
64670;DHT22;51080;51.690;5.174;2023-03-01T01:39:00;-0.50;58.00
64670;DHT22;51080;51.690;5.174;2023-03-01T01:44:46;-0.50;58.10
64670;DHT22;51080;51.690;5.174;2023-03-01T01:50:32;-0.60;58.20
64670;DHT22;51080;51.690;5.174;2023-03-01T01:56:19;-0.60;58.20
64670;DHT22;51080;51.690;5.174;2023-03-01T02:02:05;-0.70;58.40
64670;DHT22;51080;51.690;5.174;2023-03-01T02:08:21;-0.80;58.50
64670;DHT22;51080;51.690;5.174;2023-03-01T02:14:37;-0.80;58.40
64670;DHT22;51080;51.690;5.174;2023-03-01T02:32:20;-0.90;59.00
64670;DHT22;51080;51.690;5.174;2023-03-01T02:38:07;-0.90;59.10
64670;DHT22;51080;51.690;5.174;2023-03-01T02:43:55;-1.00;59.10
64670;DHT22;51080;51.690;5.174;2023-03-01T02:49:39;-1.00;59.10
64670;DHT22;51080;51.690;5.174;2023-03-01T02:55:23;-1.00;59.10
64670;DHT22;51080;51.690;5.174;2023-03-01T03:01:08;-1.10;59.20
64670;DHT22;51080;51.690;5.174;2023-03-01T03:06:52;-1.10;59.30
64670;DHT22;51080;51.690;5.174;2023-03-01T03:12:38;-1.10;59.20
64670;DHT22;51080;51.690;5.174;2023-03-01T03:18:24;-1.20;59.30
64670;DHT22;51080;51.690;5.174;2023-03-01T03:24:08;-1.20;59.30
64670;DHT22;51080;51.690;5.174;2023-03-01T03:29:52;-1.20;59.40
64670;DHT22;51080;51.690;5.174;2023-03-01T03:35:44;-1.30;59.50
64670;DHT22;51080;51.690;5.174;2023-03-01T03:41:29;-1.30;59.60
64670;DHT22;51080;51.690;5.174;2023-03-01T03:47:14;-1.20;59.70
64670;DHT22;51080;51.690;5.174;2023-03-01T03:53:04;-1.10;59.50
64670;DHT22;51080;51.690;5.174;2023-03-01T03:58:49;-1.00;59.50
64670;DHT22;51080;51.690;5.174;2023-03-01T04:04:34;-1.00;59.50
64670;DHT22;51080;51.690;5.174;2023-03-01T04:10:50;-0.90;59.50
64670;DHT22;51080;51.690;5.174;2023-03-01T04:16:36;-0.90;59.40
64670;DHT22;51080;51.690;5.174;2023-03-01T04:22:20;-0.90;59.50
64670;DHT22;51080;51.690;5.174;2023-03-01T04:28:40;-0.90;59.40
64670;DHT22;51080;51.690;5.174;2023-03-01T04:34:24;-0.90;59.40
64670;DHT22;51080;51.690;5.174;2023-03-01T04:40:10;-0.90;59.40
64670;DHT22;51080;51.690;5.174;2023-03-01T04:46:00;-0.90;59.40
64670;DHT22;51080;51.690;5.174;2023-03-01T04:51:44;-0.90;59.50
64670;DHT22;51080;51.690;5.174;2023-03-01T04:57:29;-0.90;59.60
64670;DHT22;51080;51.690;5.174;2023-03-01T05:03:13;-1.00;59.60
64670;DHT22;51080;51.690;5.174;2023-03-01T05:08:58;-1.00;59.70
64670;DHT22;51080;51.690;5.174;2023-03-01T05:14:42;-1.00;59.70
64670;DHT22;51080;51.690;5.174;2023-03-01T05:20:28;-1.10;59.80
64670;DHT22;51080;51.690;5.174;2023-03-01T05:26:16;-1.10;59.70
64670;DHT22;51080;51.690;5.174;2023-03-01T05:32:02;-1.10;59.70
64670;DHT22;51080;51.690;5.174;2023-03-01T05:37:48;-1.10;59.90
64670;DHT22;51080;51.690;5.174;2023-03-01T05:43:32;-1.20;59.90
64670;DHT22;51080;51.690;5.174;2023-03-01T05:49:46;-1.20;60.00
64670;DHT22;51080;51.690;5.174;2023-03-01T05:56:03;-1.20;60.00
64670;DHT22;51080;51.690;5.174;2023-03-01T06:01:47;-1.20;60.00
64670;DHT22;51080;51.690;5.174;2023-03-01T06:07:32;-1.20;60.20
64670;DHT22;51080;51.690;5.174;2023-03-01T06:13:16;-1.20;60.20
64670;DHT22;51080;51.690;5.174;2023-03-01T06:19:30;-1.10;60.30
64670;DHT22;51080;51.690;5.174;2023-03-01T06:25:18;-1.20;60.10
64670;DHT22;51080;51.690;5.174;2023-03-01T06:31:03;-1.20;60.20
64670;DHT22;51080;51.690;5.174;2023-03-01T06:36:47;-1.20;60.20
64670;DHT22;51080;51.690;5.174;2023-03-01T06:42:31;-1.20;60.20
64670;DHT22;51080;51.690;5.174;2023-03-01T06:48:16;-1.30;60.40
64670;DHT22;51080;51.690;5.174;2023-03-01T06:54:01;-1.20;60.40
64670;DHT22;51080;51.690;5.174;2023-03-01T06:59:46;-1.20;60.60
64670;DHT22;51080;51.690;5.174;2023-03-01T07:05:31;-1.20;60.70
64670;DHT22;51080;51.690;5.174;2023-03-01T07:11:16;-1.20;60.80
64670;DHT22;51080;51.690;5.174;2023-03-01T07:17:01;-1.20;60.80
64670;DHT22;51080;51.690;5.174;2023-03-01T07:22:45;-1.10;60.90
64670;DHT22;51080;51.690;5.174;2023-03-01T07:28:30;-1.10;61.00
64670;DHT22;51080;51.690;5.174;2023-03-01T07:34:13;-1.00;61.40
64670;DHT22;51080;51.690;5.174;2023-03-01T07:40:02;-1.00;61.70
64670;DHT22;51080;51.690;5.174;2023-03-01T07:45:53;-0.90;61.70
64670;DHT22;51080;51.690;5.174;2023-03-01T07:51:43;-0.80;61.80
64670;DHT22;51080;51.690;5.174;2023-03-01T07:57:28;-0.80;61.90
64670;DHT22;51080;51.690;5.174;2023-03-01T08:03:14;-0.70;62.60
64670;DHT22;51080;51.690;5.174;2023-03-01T08:08:59;-0.50;62.10
64670;DHT22;51080;51.690;5.174;2023-03-01T08:14:43;-0.40;62.30
64670;DHT22;51080;51.690;5.174;2023-03-01T08:20:28;-0.30;63.00
64670;DHT22;51080;51.690;5.174;2023-03-01T08:26:15;-0.10;63.00
64670;DHT22;51080;51.690;5.174;2023-03-01T08:32:00;0.10;62.80
64670;DHT22;51080;51.690;5.174;2023-03-01T08:37:46;0.20;62.60
64670;DHT22;51080;51.690;5.174;2023-03-01T08:43:31;0.30;62.70
64670;DHT22;51080;51.690;5.174;2023-03-01T08:49:18;0.50;62.80
64670;DHT22;51080;51.690;5.174;2023-03-01T08:55:04;0.60;62.60
64670;DHT22;51080;51.690;5.174;2023-03-01T09:00:49;0.80;62.90
64670;DHT22;51080;51.690;5.174;2023-03-01T09:07:04;1.00;62.50
64670;DHT22;51080;51.690;5.174;2023-03-01T09:12:48;1.10;62.30
64670;DHT22;51080;51.690;5.174;2023-03-01T09:18:33;1.30;62.40
64670;DHT22;51080;51.690;5.174;2023-03-01T09:24:23;1.50;62.00
64670;DHT22;51080;51.690;5.174;2023-03-01T09:30:09;1.70;61.90
64670;DHT22;51080;51.690;5.174;2023-03-01T09:35:58;1.90;61.40
64670;DHT22;51080;51.690;5.174;2023-03-01T09:41:55;2.20;61.00
64670;DHT22;51080;51.690;5.174;2023-03-01T09:47:40;2.40;60.50
64670;DHT22;51080;51.690;5.174;2023-03-01T09:53:32;2.60;59.80
64670;DHT22;51080;51.690;5.174;2023-03-01T09:59:39;2.90;59.20
64670;DHT22;51080;51.690;5.174;2023-03-01T10:11:48;3.60;57.80
64670;DHT22;51080;51.690;5.174;2023-03-01T10:23:34;4.30;56.20
64670;DHT22;51080;51.690;5.174;2023-03-01T10:29:24;5.00;55.20
64670;DHT22;51080;51.690;5.174;2023-03-01T10:35:25;6.30;52.50
64670;DHT22;51080;51.690;5.174;2023-03-01T10:41:10;7.70;50.10
64670;DHT22;51080;51.690;5.174;2023-03-01T10:47:01;8.90;48.00
64670;DHT22;51080;51.690;5.174;2023-03-01T10:52:57;10.10;45.40
64670;DHT22;51080;51.690;5.174;2023-03-01T10:59:03;11.90;43.20
64670;DHT22;51080;51.690;5.174;2023-03-01T11:05:16;13.40;40.10
64670;DHT22;51080;51.690;5.174;2023-03-01T11:11:25;14.50;39.40
64670;DHT22;51080;51.690;5.174;2023-03-01T11:17:27;15.40;38.30
64670;DHT22;51080;51.690;5.174;2023-03-01T11:23:43;16.10;37.30
64670;DHT22;51080;51.690;5.174;2023-03-01T11:30:05;16.60;36.60
64670;DHT22;51080;51.690;5.174;2023-03-01T11:42:09;16.60;36.20
64670;DHT22;51080;51.690;5.174;2023-03-01T11:48:06;16.50;36.10
64670;DHT22;51080;51.690;5.174;2023-03-01T11:54:18;16.00;35.70
64670;DHT22;51080;51.690;5.174;2023-03-01T12:00:43;15.20;36.90
64670;DHT22;51080;51.690;5.174;2023-03-01T12:06:48;14.80;37.30
64670;DHT22;51080;51.690;5.174;2023-03-01T12:31:43;13.80;38.20
64670;DHT22;51080;51.690;5.174;2023-03-01T12:37:49;13.60;38.70
64670;DHT22;51080;51.690;5.174;2023-03-01T12:55:38;13.70;38.40
64670;DHT22;51080;51.690;5.174;2023-03-01T13:07:52;13.70;38.90
64670;DHT22;51080;51.690;5.174;2023-03-01T13:13:37;13.80;39.00
64670;DHT22;51080;51.690;5.174;2023-03-01T13:19:58;14.00;39.00
64670;DHT22;51080;51.690;5.174;2023-03-01T13:26:02;14.30;40.60
64670;DHT22;51080;51.690;5.174;2023-03-01T13:31:56;14.70;38.70
64670;DHT22;51080;51.690;5.174;2023-03-01T13:37:41;14.90;38.60
64670;DHT22;51080;51.690;5.174;2023-03-01T13:43:56;15.10;37.20
64670;DHT22;51080;51.690;5.174;2023-03-01T13:49:51;15.30;39.80
64670;DHT22;51080;51.690;5.174;2023-03-01T13:55:50;15.70;36.70
64670;DHT22;51080;51.690;5.174;2023-03-01T14:02:10;15.90;37.20
64670;DHT22;51080;51.690;5.174;2023-03-01T14:08:28;15.70;39.00
64670;DHT22;51080;51.690;5.174;2023-03-01T14:14:55;15.50;38.30
64670;DHT22;51080;51.690;5.174;2023-03-01T14:21:13;14.60;38.10
64670;DHT22;51080;51.690;5.174;2023-03-01T14:27:35;13.50;38.40
64670;DHT22;51080;51.690;5.174;2023-03-01T14:33:55;12.80;39.70
64670;DHT22;51080;51.690;5.174;2023-03-01T14:40:33;12.40;39.60
64670;DHT22;51080;51.690;5.174;2023-03-01T14:46:52;11.90;39.70
64670;DHT22;51080;51.690;5.174;2023-03-01T14:53:17;11.30;40.40
64670;DHT22;51080;51.690;5.174;2023-03-01T14:59:33;10.90;40.70
64670;DHT22;51080;51.690;5.174;2023-03-01T15:05:48;10.60;41.10
64670;DHT22;51080;51.690;5.174;2023-03-01T15:18:50;10.50;41.30
64670;DHT22;51080;51.690;5.174;2023-03-01T15:25:14;10.50;41.20
64670;DHT22;51080;51.690;5.174;2023-03-01T15:31:33;10.10;41.00
64670;DHT22;51080;51.690;5.174;2023-03-01T15:37:48;9.70;41.50
64670;DHT22;51080;51.690;5.174;2023-03-01T15:44:29;9.40;42.00
64670;DHT22;51080;51.690;5.174;2023-03-01T15:50:43;9.20;42.50
64670;DHT22;51080;51.690;5.174;2023-03-01T15:56:56;9.00;42.40
64670;DHT22;51080;51.690;5.174;2023-03-01T16:03:12;8.80;43.00
64670;DHT22;51080;51.690;5.174;2023-03-01T16:09:28;8.70;43.00
64670;DHT22;51080;51.690;5.174;2023-03-01T16:15:43;8.70;43.10
64670;DHT22;51080;51.690;5.174;2023-03-01T16:21:58;8.60;43.10
64670;DHT22;51080;51.690;5.174;2023-03-01T16:28:12;8.60;42.90
64670;DHT22;51080;51.690;5.174;2023-03-01T16:34:26;8.50;43.60
64670;DHT22;51080;51.690;5.174;2023-03-01T16:40:46;8.30;43.60
64670;DHT22;51080;51.690;5.174;2023-03-01T16:47:01;8.00;44.10
64670;DHT22;51080;51.690;5.174;2023-03-01T16:53:16;7.90;44.90
64670;DHT22;51080;51.690;5.174;2023-03-01T16:59:32;7.90;45.20
64670;DHT22;51080;51.690;5.174;2023-03-01T17:05:47;7.70;45.10
64670;DHT22;51080;51.690;5.174;2023-03-01T17:12:02;7.40;45.20
64670;DHT22;51080;51.690;5.174;2023-03-01T17:18:17;7.10;45.30
64670;DHT22;51080;51.690;5.174;2023-03-01T17:24:34;6.80;45.70
64670;DHT22;51080;51.690;5.174;2023-03-01T17:30:48;6.60;45.90
64670;DHT22;51080;51.690;5.174;2023-03-01T17:37:03;6.40;46.30
64670;DHT22;51080;51.690;5.174;2023-03-01T17:43:18;6.20;46.40
64670;DHT22;51080;51.690;5.174;2023-03-01T17:49:33;6.10;46.60
64670;DHT22;51080;51.690;5.174;2023-03-01T17:55:48;5.90;47.00
64670;DHT22;51080;51.690;5.174;2023-03-01T18:02:03;5.70;47.20
64670;DHT22;51080;51.690;5.174;2023-03-01T18:08:19;5.60;47.40
64670;DHT22;51080;51.690;5.174;2023-03-01T18:14:34;5.40;47.70
64670;DHT22;51080;51.690;5.174;2023-03-01T18:20:57;5.30;47.90
64670;DHT22;51080;51.690;5.174;2023-03-01T18:27:24;5.10;48.20
64670;DHT22;51080;51.690;5.174;2023-03-01T18:33:50;5.00;48.50
64670;DHT22;51080;51.690;5.174;2023-03-01T18:40:08;4.90;48.70
64670;DHT22;51080;51.690;5.174;2023-03-01T18:46:36;4.70;49.00
64670;DHT22;51080;51.690;5.174;2023-03-01T18:52:52;4.60;49.30
64670;DHT22;51080;51.690;5.174;2023-03-01T18:59:10;4.50;49.30
64670;DHT22;51080;51.690;5.174;2023-03-01T19:05:30;4.40;49.40
64670;DHT22;51080;51.690;5.174;2023-03-01T19:11:47;4.30;49.50
64670;DHT22;51080;51.690;5.174;2023-03-01T19:18:02;4.20;49.70
64670;DHT22;51080;51.690;5.174;2023-03-01T19:24:17;4.10;49.70
64670;DHT22;51080;51.690;5.174;2023-03-01T19:30:37;4.00;49.80
64670;DHT22;51080;51.690;5.174;2023-03-01T19:37:02;3.90;49.90
64670;DHT22;51080;51.690;5.174;2023-03-01T19:43:37;3.80;50.10
64670;DHT22;51080;51.690;5.174;2023-03-01T19:49:52;3.80;50.20
64670;DHT22;51080;51.690;5.174;2023-03-01T19:56:09;3.80;50.10
64670;DHT22;51080;51.690;5.174;2023-03-01T20:02:29;3.70;50.40
64670;DHT22;51080;51.690;5.174;2023-03-01T20:08:47;3.60;50.60
64670;DHT22;51080;51.690;5.174;2023-03-01T20:15:03;3.50;50.70
64670;DHT22;51080;51.690;5.174;2023-03-01T20:21:21;3.40;51.10
64670;DHT22;51080;51.690;5.174;2023-03-01T20:27:43;3.30;51.00
64670;DHT22;51080;51.690;5.174;2023-03-01T20:33:59;3.20;51.10
64670;DHT22;51080;51.690;5.174;2023-03-01T20:40:16;3.10;51.30
64670;DHT22;51080;51.690;5.174;2023-03-01T20:46:35;3.10;51.80
64670;DHT22;51080;51.690;5.174;2023-03-01T20:52:51;3.10;52.00
64670;DHT22;51080;51.690;5.174;2023-03-01T20:59:09;3.00;52.00
64670;DHT22;51080;51.690;5.174;2023-03-01T21:05:26;2.90;52.00
64670;DHT22;51080;51.690;5.174;2023-03-01T21:11:43;2.90;52.20
64670;DHT22;51080;51.690;5.174;2023-03-01T21:17:58;2.80;52.50
64670;DHT22;51080;51.690;5.174;2023-03-01T21:24:13;2.70;52.70
64670;DHT22;51080;51.690;5.174;2023-03-01T21:30:28;2.70;52.80
64670;DHT22;51080;51.690;5.174;2023-03-01T21:36:42;2.60;52.90
64670;DHT22;51080;51.690;5.174;2023-03-01T21:42:57;2.60;53.30
64670;DHT22;51080;51.690;5.174;2023-03-01T21:49:14;2.50;53.30
64670;DHT22;51080;51.690;5.174;2023-03-01T21:55:28;2.50;53.50
64670;DHT22;51080;51.690;5.174;2023-03-01T22:01:43;2.40;53.60
64670;DHT22;51080;51.690;5.174;2023-03-01T22:08:00;2.40;53.60
64670;DHT22;51080;51.690;5.174;2023-03-01T22:14:28;2.30;53.70
64670;DHT22;51080;51.690;5.174;2023-03-01T22:20:47;2.20;53.70
64670;DHT22;51080;51.690;5.174;2023-03-01T22:27:05;2.20;53.50
64670;DHT22;51080;51.690;5.174;2023-03-01T22:33:22;2.10;53.40
64670;DHT22;51080;51.690;5.174;2023-03-01T22:39:40;2.00;53.50
64670;DHT22;51080;51.690;5.174;2023-03-01T22:45:58;1.90;53.70
64670;DHT22;51080;51.690;5.174;2023-03-01T22:52:16;1.80;54.30
64670;DHT22;51080;51.690;5.174;2023-03-01T22:58:35;1.80;54.00
64670;DHT22;51080;51.690;5.174;2023-03-01T23:04:53;1.70;54.40
64670;DHT22;51080;51.690;5.174;2023-03-01T23:11:14;1.70;54.60
64670;DHT22;51080;51.690;5.174;2023-03-01T23:17:35;1.70;55.00
64670;DHT22;51080;51.690;5.174;2023-03-01T23:23:54;1.70;54.80
64670;DHT22;51080;51.690;5.174;2023-03-01T23:30:14;1.60;54.70
64670;DHT22;51080;51.690;5.174;2023-03-01T23:36:33;1.60;55.00
64670;DHT22;51080;51.690;5.174;2023-03-01T23:42:50;1.50;55.00
64670;DHT22;51080;51.690;5.174;2023-03-01T23:49:12;1.50;54.80
64670;DHT22;51080;51.690;5.174;2023-03-01T23:55:30;1.40;54.80
